sensor_id;sensor_type;location;lat;lon;timestamp;pressure;altitude;pressure_sealevel;temperature;humidity
80103;BME280;69865;47.648;19.030;2023-05-23T00:00:03;100223.75;;;13.58;86.76
80103;BME280;69865;47.648;19.030;2023-05-23T00:00:34;100220.31;;;13.57;87.55
80103;BME280;69865;47.648;19.030;2023-05-23T00:01:06;100226.28;;;13.59;86.78
80103;BME280;69865;47.648;19.030;2023-05-23T00:01:36;100220.13;;;13.59;87.03
80103;BME280;69865;47.648;19.030;2023-05-23T00:02:07;100221.81;;;13.60;87.07
80103;BME280;69865;47.648;19.030;2023-05-23T00:02:38;100222.78;;;13.59;87.50
80103;BME280;69865;47.648;19.030;2023-05-23T00:03:09;100231.03;;;13.56;87.41
80103;BME280;69865;47.648;19.030;2023-05-23T00:03:40;100215.16;;;13.56;86.85
80103;BME280;69865;47.648;19.030;2023-05-23T00:04:11;100217.81;;;13.56;87.63
80103;BME280;69865;47.648;19.030;2023-05-23T00:04:42;100223.63;;;13.59;87.24
80103;BME280;69865;47.648;19.030;2023-05-23T00:05:13;100221.13;;;13.58;86.83
80103;BME280;69865;47.648;19.030;2023-05-23T00:05:43;100221.81;;;13.60;86.86
80103;BME280;69865;47.648;19.030;2023-05-23T00:06:18;100214.72;;;13.60;86.90
80103;BME280;69865;47.648;19.030;2023-05-23T00:06:49;100215.69;;;13.59;87.47
80103;BME280;69865;47.648;19.030;2023-05-23T00:07:20;100218.00;;;13.62;86.89
80103;BME280;69865;47.648;19.030;2023-05-23T00:07:51;100224.84;;;13.65;86.36
80103;BME280;69865;47.648;19.030;2023-05-23T00:08:21;100216.72;;;13.67;86.23
80103;BME280;69865;47.648;19.030;2023-05-23T00:08:52;100219.72;;;13.72;87.07
80103;BME280;69865;47.648;19.030;2023-05-23T00:09:23;100218.91;;;13.71;86.74
80103;BME280;69865;47.648;19.030;2023-05-23T00:09:54;100213.47;;;13.73;86.27
80103;BME280;69865;47.648;19.030;2023-05-23T00:10:25;100219.59;;;13.73;86.51
80103;BME280;69865;47.648;19.030;2023-05-23T00:10:55;100216.94;;;13.73;86.40
80103;BME280;69865;47.648;19.030;2023-05-23T00:11:26;100215.09;;;13.74;87.02
80103;BME280;69865;47.648;19.030;2023-05-23T00:11:57;100211.94;;;13.70;86.83
80103;BME280;69865;47.648;19.030;2023-05-23T00:12:28;100219.03;;;13.70;86.92
80103;BME280;69865;47.648;19.030;2023-05-23T00:12:59;100212.94;;;13.69;86.38
80103;BME280;69865;47.648;19.030;2023-05-23T00:13:30;100212.25;;;13.67;86.81
80103;BME280;69865;47.648;19.030;2023-05-23T00:14:00;100218.25;;;13.69;86.43
80103;BME280;69865;47.648;19.030;2023-05-23T00:14:31;100212.94;;;13.69;86.62
80103;BME280;69865;47.648;19.030;2023-05-23T00:15:02;100213.75;;;13.70;86.51
80103;BME280;69865;47.648;19.030;2023-05-23T00:15:33;100210.44;;;13.68;86.70
80103;BME280;69865;47.648;19.030;2023-05-23T00:16:05;100210.59;;;13.66;86.61
80103;BME280;69865;47.648;19.030;2023-05-23T00:16:36;100219.69;;;13.63;86.68
80103;BME280;69865;47.648;19.030;2023-05-23T00:17:07;100210.25;;;13.61;87.08
80103;BME280;69865;47.648;19.030;2023-05-23T00:17:38;100214.19;;;13.57;87.16
80103;BME280;69865;47.648;19.030;2023-05-23T00:18:09;100212.66;;;13.54;87.17
80103;BME280;69865;47.648;19.030;2023-05-23T00:18:43;100212.84;;;13.53;87.49
80103;BME280;69865;47.648;19.030;2023-05-23T00:19:15;100210.34;;;13.51;87.05
80103;BME280;69865;47.648;19.030;2023-05-23T00:19:46;100215.47;;;13.53;87.01
80103;BME280;69865;47.648;19.030;2023-05-23T00:20:17;100211.81;;;13.54;87.00
80103;BME280;69865;47.648;19.030;2023-05-23T00:20:47;100218.78;;;13.55;86.82
80103;BME280;69865;47.648;19.030;2023-05-23T00:21:18;100216.16;;;13.55;87.06
80103;BME280;69865;47.648;19.030;2023-05-23T00:21:49;100214.47;;;13.54;86.58
80103;BME280;69865;47.648;19.030;2023-05-23T00:22:20;100212.66;;;13.54;87.00
80103;BME280;69865;47.648;19.030;2023-05-23T00:22:50;100216.66;;;13.58;86.80
80103;BME280;69865;47.648;19.030;2023-05-23T00:23:21;100209.72;;;13.57;86.92
80103;BME280;69865;47.648;19.030;2023-05-23T00:23:52;100215.81;;;13.58;87.08
80103;BME280;69865;47.648;19.030;2023-05-23T00:24:23;100212.19;;;13.59;86.85
80103;BME280;69865;47.648;19.030;2023-05-23T00:24:54;100215.03;;;13.57;86.87
80103;BME280;69865;47.648;19.030;2023-05-23T00:25:25;100217.81;;;13.56;87.36
80103;BME280;69865;47.648;19.030;2023-05-23T00:25:56;100219.47;;;13.57;87.05
80103;BME280;69865;47.648;19.030;2023-05-23T00:26:27;100211.69;;;13.55;87.10
80103;BME280;69865;47.648;19.030;2023-05-23T00:26:57;100221.59;;;13.53;87.37
80103;BME280;69865;47.648;19.030;2023-05-23T00:27:28;100215.31;;;13.54;87.46
80103;BME280;69865;47.648;19.030;2023-05-23T00:27:59;100220.31;;;13.57;86.55
80103;BME280;69865;47.648;19.030;2023-05-23T00:28:30;100220.13;;;13.59;86.70
80103;BME280;69865;47.648;19.030;2023-05-23T00:29:01;100217.34;;;13.60;87.16
80103;BME280;69865;47.648;19.030;2023-05-23T00:29:31;100222.66;;;13.60;87.20
80103;BME280;69865;47.648;19.030;2023-05-23T00:30:02;100217.50;;;13.59;86.85
80103;BME280;69865;47.648;19.030;2023-05-23T00:30:33;100220.47;;;13.56;87.41
80103;BME280;69865;47.648;19.030;2023-05-23T00:31:05;100220.47;;;13.56;87.34
80103;BME280;69865;47.648;19.030;2023-05-23T00:31:36;100218.66;;;13.56;87.06
80103;BME280;69865;47.648;19.030;2023-05-23T00:32:07;100209.34;;;13.52;87.11
80103;BME280;69865;47.648;19.030;2023-05-23T00:32:38;100211.53;;;13.57;87.19
80103;BME280;69865;47.648;19.030;2023-05-23T00:33:09;100219.31;;;13.58;87.02
80103;BME280;69865;47.648;19.030;2023-05-23T00:33:39;100208.72;;;13.58;86.54
80103;BME280;69865;47.648;19.030;2023-05-23T00:34:10;100217.66;;;13.57;87.00
80103;BME280;69865;47.648;19.030;2023-05-23T00:34:41;100212.19;;;13.59;86.61
80103;BME280;69865;47.648;19.030;2023-05-23T00:35:12;100208.41;;;13.61;86.81
80103;BME280;69865;47.648;19.030;2023-05-23T00:35:43;100218.69;;;13.64;86.32
80103;BME280;69865;47.648;19.030;2023-05-23T00:36:13;100215.22;;;13.64;86.59
80103;BME280;69865;47.648;19.030;2023-05-23T00:36:45;100214.38;;;13.63;87.15
80103;BME280;69865;47.648;19.030;2023-05-23T00:37:16;100216.53;;;13.60;86.79
80103;BME280;69865;47.648;19.030;2023-05-23T00:37:47;100215.53;;;13.61;87.08
80103;BME280;69865;47.648;19.030;2023-05-23T00:38:17;100208.56;;;13.60;86.59
80103;BME280;69865;47.648;19.030;2023-05-23T00:38:48;100221.63;;;13.61;87.19
80103;BME280;69865;47.648;19.030;2023-05-23T00:39:19;100214.53;;;13.62;86.68
80103;BME280;69865;47.648;19.030;2023-05-23T00:39:50;100211.75;;;13.63;86.95
80103;BME280;69865;47.648;19.030;2023-05-23T00:40:21;100221.34;;;13.64;86.43
80103;BME280;69865;47.648;19.030;2023-05-23T00:40:51;100216.34;;;13.61;86.47
80103;BME280;69865;47.648;19.030;2023-05-23T00:41:22;100207.28;;;13.64;87.00
80103;BME280;69865;47.648;19.030;2023-05-23T00:41:53;100216.56;;;13.68;86.12
80103;BME280;69865;47.648;19.030;2023-05-23T00:42:24;100215.03;;;13.65;86.01
80103;BME280;69865;47.648;19.030;2023-05-23T00:42:55;100216.06;;;13.64;86.03
80103;BME280;69865;47.648;19.030;2023-05-23T00:43:26;100217.03;;;13.63;86.89
80103;BME280;69865;47.648;19.030;2023-05-23T00:43:57;100211.22;;;13.60;86.53
80103;BME280;69865;47.648;19.030;2023-05-23T00:44:27;100205.25;;;13.58;87.23
80103;BME280;69865;47.648;19.030;2023-05-23T00:44:58;100208.38;;;13.53;87.16
80103;BME280;69865;47.648;19.030;2023-05-23T00:45:29;100214.47;;;13.54;87.34
80103;BME280;69865;47.648;19.030;2023-05-23T00:46:00;100214.78;;;13.51;87.43
80103;BME280;69865;47.648;19.030;2023-05-23T00:46:32;100210.47;;;13.50;87.75
80103;BME280;69865;47.648;19.030;2023-05-23T00:47:04;100209.81;;;13.48;87.34
80103;BME280;69865;47.648;19.030;2023-05-23T00:47:36;100215.25;;;13.46;87.46
80103;BME280;69865;47.648;19.030;2023-05-23T00:48:07;100212.59;;;13.46;87.24
80103;BME280;69865;47.648;19.030;2023-05-23T00:48:37;100210.13;;;13.45;87.81
80103;BME280;69865;47.648;19.030;2023-05-23T00:49:09;100208.78;;;13.41;87.67
80103;BME280;69865;47.648;19.030;2023-05-23T00:49:40;100216.03;;;13.39;87.46
80103;BME280;69865;47.648;19.030;2023-05-23T00:50:12;100218.28;;;13.34;88.29
80103;BME280;69865;47.648;19.030;2023-05-23T00:50:43;100209.69;;;13.32;88.33
80103;BME280;69865;47.648;19.030;2023-05-23T00:51:14;100210.66;;;13.31;88.30
80103;BME280;69865;47.648;19.030;2023-05-23T00:51:45;100209.69;;;13.32;88.24
80103;BME280;69865;47.648;19.030;2023-05-23T00:52:16;100207.88;;;13.32;87.92
80103;BME280;69865;47.648;19.030;2023-05-23T00:52:48;100221.09;;;13.32;88.31
80103;BME280;69865;47.648;19.030;2023-05-23T00:53:20;100211.88;;;13.36;87.91
80103;BME280;69865;47.648;19.030;2023-05-23T00:53:51;100211.72;;;13.38;88.12
80103;BME280;69865;47.648;19.030;2023-05-23T00:54:25;100216.66;;;13.33;88.11
80103;BME280;69865;47.648;19.030;2023-05-23T00:54:58;100210.66;;;13.31;88.06
80103;BME280;69865;47.648;19.030;2023-05-23T00:55:29;100206.22;;;13.31;87.94
80103;BME280;69865;47.648;19.030;2023-05-23T00:56:01;100213.47;;;13.29;88.10
80103;BME280;69865;47.648;19.030;2023-05-23T00:56:32;100214.78;;;13.25;87.89
80103;BME280;69865;47.648;19.030;2023-05-23T00:57:04;100213.09;;;13.24;88.01
80103;BME280;69865;47.648;19.030;2023-05-23T00:57:35;100211.59;;;13.22;88.39
80103;BME280;69865;47.648;19.030;2023-05-23T00:58:07;100208.41;;;13.18;88.58
80103;BME280;69865;47.648;19.030;2023-05-23T00:58:38;100209.56;;;13.15;88.59
80103;BME280;69865;47.648;19.030;2023-05-23T00:59:10;100214.19;;;13.13;88.62
80103;BME280;69865;47.648;19.030;2023-05-23T00:59:44;100210.97;;;13.10;88.58
80103;BME280;69865;47.648;19.030;2023-05-23T01:00:15;100214.59;;;13.09;88.67
80103;BME280;69865;47.648;19.030;2023-05-23T01:00:46;100205.97;;;13.07;88.63
80103;BME280;69865;47.648;19.030;2023-05-23T01:01:17;100213.06;;;13.06;88.75
80103;BME280;69865;47.648;19.030;2023-05-23T01:01:50;100211.56;;;13.04;88.75
80103;BME280;69865;47.648;19.030;2023-05-23T01:02:21;100216.34;;;13.00;88.77
80103;BME280;69865;47.648;19.030;2023-05-23T01:02:52;100217.00;;;13.02;89.25
80103;BME280;69865;47.648;19.030;2023-05-23T01:03:23;100206.72;;;12.99;89.01
80103;BME280;69865;47.648;19.030;2023-05-23T01:03:54;100207.88;;;12.97;88.59
80103;BME280;69865;47.648;19.030;2023-05-23T01:04:25;100212.63;;;12.93;89.04
80103;BME280;69865;47.648;19.030;2023-05-23T01:04:55;100209.31;;;12.91;89.31
80103;BME280;69865;47.648;19.030;2023-05-23T01:05:26;100208.47;;;12.91;88.92
80103;BME280;69865;47.648;19.030;2023-05-23T01:05:57;100212.78;;;12.92;89.71
80103;BME280;69865;47.648;19.030;2023-05-23T01:06:28;100203.19;;;12.91;89.51
80103;BME280;69865;47.648;19.030;2023-05-23T01:06:58;100212.13;;;12.90;89.44
80103;BME280;69865;47.648;19.030;2023-05-23T01:07:30;100207.09;;;12.87;89.53
80103;BME280;69865;47.648;19.030;2023-05-23T01:08:00;100213.22;;;12.87;89.46
80103;BME280;69865;47.648;19.030;2023-05-23T01:08:31;100209.59;;;12.88;89.35
80103;BME280;69865;47.648;19.030;2023-05-23T01:09:02;100206.13;;;12.88;89.56
80103;BME280;69865;47.648;19.030;2023-05-23T01:09:33;100215.34;;;12.84;89.69
80103;BME280;69865;47.648;19.030;2023-05-23T01:10:04;100205.38;;;12.78;89.84
80103;BME280;69865;47.648;19.030;2023-05-23T01:10:36;100214.94;;;12.79;89.93
80103;BME280;69865;47.648;19.030;2023-05-23T01:11:12;100214.44;;;12.75;90.23
80103;BME280;69865;47.648;19.030;2023-05-23T01:12:00;100212.63;;;12.76;90.35
80103;BME280;69865;47.648;19.030;2023-05-23T01:12:45;100210.94;;;12.75;90.83
80103;BME280;69865;47.648;19.030;2023-05-23T01:13:27;100208.63;;;12.71;90.91
80103;BME280;69865;47.648;19.030;2023-05-23T01:14:05;100209.59;;;12.70;91.26
80103;BME280;69865;47.648;19.030;2023-05-23T01:14:44;100206.66;;;12.74;91.35
80103;BME280;69865;47.648;19.030;2023-05-23T01:15:19;100210.13;;;12.74;91.09
80103;BME280;69865;47.648;19.030;2023-05-23T01:15:57;100208.31;;;12.75;91.22
80103;BME280;69865;47.648;19.030;2023-05-23T01:16:37;100210.13;;;12.74;91.13
80103;BME280;69865;47.648;19.030;2023-05-23T01:17:17;100209.59;;;12.70;91.39
80103;BME280;69865;47.648;19.030;2023-05-23T01:17:51;100210.03;;;12.66;91.06
80103;BME280;69865;47.648;19.030;2023-05-23T01:18:31;100208.22;;;12.66;90.65
80103;BME280;69865;47.648;19.030;2023-05-23T01:19:16;100205.56;;;12.66;91.16
80103;BME280;69865;47.648;19.030;2023-05-23T01:19:57;100205.03;;;12.63;91.53
80103;BME280;69865;47.648;19.030;2023-05-23T01:20:31;100211.16;;;12.63;90.96
80103;BME280;69865;47.648;19.030;2023-05-23T01:21:08;100217.28;;;12.64;91.70
80103;BME280;69865;47.648;19.030;2023-05-23T01:21:43;100215.47;;;12.64;91.80
80103;BME280;69865;47.648;19.030;2023-05-23T01:22:21;100204.22;;;12.62;92.17
80103;BME280;69865;47.648;19.030;2023-05-23T01:23:09;100213.28;;;12.60;91.26
80103;BME280;69865;47.648;19.030;2023-05-23T01:24:02;100216.75;;;12.60;91.99
80103;BME280;69865;47.648;19.030;2023-05-23T01:24:46;100208.97;;;12.59;91.82
80103;BME280;69865;47.648;19.030;2023-05-23T01:25:30;100206.31;;;12.59;91.76
80103;BME280;69865;47.648;19.030;2023-05-23T01:26:15;100213.28;;;12.60;91.89
80103;BME280;69865;47.648;19.030;2023-05-23T01:27:00;100210.63;;;12.60;91.71
80103;BME280;69865;47.648;19.030;2023-05-23T01:27:44;100201.88;;;12.59;92.07
80103;BME280;69865;47.648;19.030;2023-05-23T01:28:19;100212.44;;;12.59;92.05
80103;BME280;69865;47.648;19.030;2023-05-23T01:28:55;100216.22;;;12.57;91.86
80103;BME280;69865;47.648;19.030;2023-05-23T01:29:31;100213.41;;;12.58;91.96
80103;BME280;69865;47.648;19.030;2023-05-23T01:30:08;100207.47;;;12.56;92.99
80103;BME280;69865;47.648;19.030;2023-05-23T01:30:43;100208.00;;;12.60;92.29
80103;BME280;69865;47.648;19.030;2023-05-23T01:31:16;100213.94;;;12.62;92.09
80103;BME280;69865;47.648;19.030;2023-05-23T01:31:48;100214.66;;;12.64;92.29
80103;BME280;69865;47.648;19.030;2023-05-23T01:32:24;100208.81;;;12.60;91.99
80103;BME280;69865;47.648;19.030;2023-05-23T01:32:55;100208.97;;;12.59;91.61
80103;BME280;69865;47.648;19.030;2023-05-23T01:33:27;100210.78;;;12.58;91.74
80103;BME280;69865;47.648;19.030;2023-05-23T01:33:59;100210.94;;;12.57;91.62
80103;BME280;69865;47.648;19.030;2023-05-23T01:34:34;100211.25;;;12.54;91.55
80103;BME280;69865;47.648;19.030;2023-05-23T01:35:07;100202.50;;;12.53;91.91
80103;BME280;69865;47.648;19.030;2023-05-23T01:35:41;100212.06;;;12.54;91.48
80103;BME280;69865;47.648;19.030;2023-05-23T01:36:12;100204.28;;;12.53;92.11
80103;BME280;69865;47.648;19.030;2023-05-23T01:36:43;100203.31;;;12.54;91.40
80103;BME280;69865;47.648;19.030;2023-05-23T01:37:14;100201.66;;;12.53;91.80
80103;BME280;69865;47.648;19.030;2023-05-23T01:37:44;100204.28;;;12.53;92.01
80103;BME280;69865;47.648;19.030;2023-05-23T01:38:15;100200.81;;;12.52;92.02
80103;BME280;69865;47.648;19.030;2023-05-23T01:38:46;100208.75;;;12.52;92.39
80103;BME280;69865;47.648;19.030;2023-05-23T01:39:17;100202.63;;;12.52;92.10
80103;BME280;69865;47.648;19.030;2023-05-23T01:39:48;100209.72;;;12.51;91.99
80103;BME280;69865;47.648;19.030;2023-05-23T01:40:18;100199.31;;;12.50;92.08
80103;BME280;69865;47.648;19.030;2023-05-23T01:40:49;100207.06;;;12.51;92.42
80103;BME280;69865;47.648;19.030;2023-05-23T01:41:20;100201.78;;;12.51;92.16
80103;BME280;69865;47.648;19.030;2023-05-23T01:41:52;100206.41;;;12.49;92.23
80103;BME280;69865;47.648;19.030;2023-05-23T01:42:23;100210.00;;;12.48;92.94
80103;BME280;69865;47.648;19.030;2023-05-23T01:42:56;100201.25;;;12.48;92.61
80103;BME280;69865;47.648;19.030;2023-05-23T01:43:27;100202.75;;;12.50;92.92
80103;BME280;69865;47.648;19.030;2023-05-23T01:43:59;100203.59;;;12.51;92.97
80103;BME280;69865;47.648;19.030;2023-05-23T01:44:31;100205.13;;;12.53;92.52
80103;BME280;69865;47.648;19.030;2023-05-23T01:45:02;100210.25;;;12.55;92.76
80103;BME280;69865;47.648;19.030;2023-05-23T01:45:34;100205.78;;;12.55;92.50
80103;BME280;69865;47.648;19.030;2023-05-23T01:46:06;100207.47;;;12.56;91.83
80103;BME280;69865;47.648;19.030;2023-05-23T01:46:38;100209.28;;;12.56;91.92
80103;BME280;69865;47.648;19.030;2023-05-23T01:47:11;100204.97;;;12.55;92.00
80103;BME280;69865;47.648;19.030;2023-05-23T01:47:43;100207.59;;;12.55;91.72
80103;BME280;69865;47.648;19.030;2023-05-23T01:48:17;100208.59;;;12.54;91.39
80103;BME280;69865;47.648;19.030;2023-05-23T01:48:49;100204.44;;;12.51;91.49
80103;BME280;69865;47.648;19.030;2023-05-23T01:49:22;100210.53;;;12.52;91.63
80103;BME280;69865;47.648;19.030;2023-05-23T01:49:56;100200.28;;;12.49;91.84
80103;BME280;69865;47.648;19.030;2023-05-23T01:50:29;100203.06;;;12.47;91.95
80103;BME280;69865;47.648;19.030;2023-05-23T01:51:01;100205.72;;;12.47;92.25
80103;BME280;69865;47.648;19.030;2023-05-23T01:51:32;100202.41;;;12.45;92.54
80103;BME280;69865;47.648;19.030;2023-05-23T01:52:04;100206.16;;;12.43;92.72
80103;BME280;69865;47.648;19.030;2023-05-23T01:52:36;100205.31;;;12.42;92.06
80103;BME280;69865;47.648;19.030;2023-05-23T01:53:08;100198.53;;;12.40;91.77
80103;BME280;69865;47.648;19.030;2023-05-23T01:53:39;100208.25;;;12.39;92.24
80103;BME280;69865;47.648;19.030;2023-05-23T01:54:11;100212.69;;;12.39;93.13
80103;BME280;69865;47.648;19.030;2023-05-23T01:54:44;100208.41;;;12.38;92.56
80103;BME280;69865;47.648;19.030;2023-05-23T01:55:16;100203.28;;;12.36;92.50
80103;BME280;69865;47.648;19.030;2023-05-23T01:55:49;100204.09;;;12.37;92.25
80103;BME280;69865;47.648;19.030;2023-05-23T01:56:21;100202.56;;;12.34;92.54
80103;BME280;69865;47.648;19.030;2023-05-23T01:56:53;100204.53;;;12.32;92.33
80103;BME280;69865;47.648;19.030;2023-05-23T01:57:25;100203.72;;;12.32;92.33
80103;BME280;69865;47.648;19.030;2023-05-23T01:58:01;100203.84;;;12.30;92.37
80103;BME280;69865;47.648;19.030;2023-05-23T01:58:32;100200.53;;;12.28;91.79
80103;BME280;69865;47.648;19.030;2023-05-23T01:59:03;100200.84;;;12.25;91.84
80103;BME280;69865;47.648;19.030;2023-05-23T01:59:34;100200.00;;;12.24;91.84
80103;BME280;69865;47.648;19.030;2023-05-23T02:00:06;100208.75;;;12.25;91.69
80103;BME280;69865;47.648;19.030;2023-05-23T02:00:37;100201.81;;;12.24;91.92
80103;BME280;69865;47.648;19.030;2023-05-23T02:01:08;100196.00;;;12.20;91.96
80103;BME280;69865;47.648;19.030;2023-05-23T02:01:40;100204.88;;;12.19;92.07
80103;BME280;69865;47.648;19.030;2023-05-23T02:02:11;100199.75;;;12.18;92.62
80103;BME280;69865;47.648;19.030;2023-05-23T02:02:42;100201.41;;;12.19;91.68
80103;BME280;69865;47.648;19.030;2023-05-23T02:03:13;100201.56;;;12.17;92.39
80103;BME280;69865;47.648;19.030;2023-05-23T02:03:44;100198.94;;;12.17;92.44
80103;BME280;69865;47.648;19.030;2023-05-23T02:04:14;100203.22;;;12.18;92.19
80103;BME280;69865;47.648;19.030;2023-05-23T02:04:45;100197.13;;;12.18;92.72
80103;BME280;69865;47.648;19.030;2023-05-23T02:05:16;100199.38;;;12.13;92.43
80103;BME280;69865;47.648;19.030;2023-05-23T02:05:47;100194.66;;;12.07;92.48
80103;BME280;69865;47.648;19.030;2023-05-23T02:06:17;100198.81;;;12.09;92.37
80103;BME280;69865;47.648;19.030;2023-05-23T02:06:48;100198.00;;;12.09;92.45
80103;BME280;69865;47.648;19.030;2023-05-23T02:07:19;100199.94;;;12.07;92.78
80103;BME280;69865;47.648;19.030;2023-05-23T02:07:49;100191.34;;;12.05;93.52
80103;BME280;69865;47.648;19.030;2023-05-23T02:08:20;100198.66;;;12.11;92.77
80103;BME280;69865;47.648;19.030;2023-05-23T02:08:51;100196.03;;;12.11;93.70
80103;BME280;69865;47.648;19.030;2023-05-23T02:09:22;100196.84;;;12.11;93.79
80103;BME280;69865;47.648;19.030;2023-05-23T02:09:53;100194.91;;;12.13;93.68
80103;BME280;69865;47.648;19.030;2023-05-23T02:10:24;100200.03;;;12.15;93.24
80103;BME280;69865;47.648;19.030;2023-05-23T02:10:55;100191.00;;;12.17;93.64
80103;BME280;69865;47.648;19.030;2023-05-23T02:11:25;100196.97;;;12.19;93.91
80103;BME280;69865;47.648;19.030;2023-05-23T02:11:56;100197.78;;;12.20;93.05
80103;BME280;69865;47.648;19.030;2023-05-23T02:12:27;100195.03;;;12.21;93.70
80103;BME280;69865;47.648;19.030;2023-05-23T02:12:57;100190.84;;;12.19;93.91
80103;BME280;69865;47.648;19.030;2023-05-23T02:13:30;100188.91;;;12.21;93.54
80103;BME280;69865;47.648;19.030;2023-05-23T02:14:00;100186.25;;;12.21;93.50
80103;BME280;69865;47.648;19.030;2023-05-23T02:14:31;100188.06;;;12.20;93.95
80103;BME280;69865;47.648;19.030;2023-05-23T02:15:03;100196.00;;;12.20;93.47
80103;BME280;69865;47.648;19.030;2023-05-23T02:15:33;100198.63;;;12.20;93.65
80103;BME280;69865;47.648;19.030;2023-05-23T02:16:04;100197.66;;;12.21;94.12
80103;BME280;69865;47.648;19.030;2023-05-23T02:16:35;100202.09;;;12.21;93.76
80103;BME280;69865;47.648;19.030;2023-05-23T02:17:06;100194.19;;;12.21;93.54
80103;BME280;69865;47.648;19.030;2023-05-23T02:17:36;100190.41;;;12.23;94.07
80103;BME280;69865;47.648;19.030;2023-05-23T02:18:07;100195.69;;;12.23;93.45
80103;BME280;69865;47.648;19.030;2023-05-23T02:18:38;100194.84;;;12.23;93.11
80103;BME280;69865;47.648;19.030;2023-05-23T02:19:09;100199.16;;;12.24;93.68
80103;BME280;69865;47.648;19.030;2023-05-23T02:19:40;100192.75;;;12.27;93.28
80103;BME280;69865;47.648;19.030;2023-05-23T02:20:10;100195.38;;;12.27;93.30
80103;BME280;69865;47.648;19.030;2023-05-23T02:20:41;100190.94;;;12.27;93.08
80103;BME280;69865;47.648;19.030;2023-05-23T02:21:12;100191.47;;;12.31;93.42
80103;BME280;69865;47.648;19.030;2023-05-23T02:21:42;100188.84;;;12.31;93.26
80103;BME280;69865;47.648;19.030;2023-05-23T02:22:13;100192.00;;;12.34;92.98
80103;BME280;69865;47.648;19.030;2023-05-23T02:22:44;100191.88;;;12.36;92.86
80103;BME280;69865;47.648;19.030;2023-05-23T02:23:15;100193.53;;;12.37;92.92
80103;BME280;69865;47.648;19.030;2023-05-23T02:23:45;100184.66;;;12.38;92.82
80103;BME280;69865;47.648;19.030;2023-05-23T02:24:16;100183.50;;;12.40;93.10
80103;BME280;69865;47.648;19.030;2023-05-23T02:24:48;100186.00;;;12.42;92.96
80103;BME280;69865;47.648;19.030;2023-05-23T02:25:19;100185.19;;;12.41;92.88
80103;BME280;69865;47.648;19.030;2023-05-23T02:25:49;100189.31;;;12.44;92.45
80103;BME280;69865;47.648;19.030;2023-05-23T02:26:20;100188.50;;;12.43;92.44
80103;BME280;69865;47.648;19.030;2023-05-23T02:26:51;100188.34;;;12.45;92.84
80103;BME280;69865;47.648;19.030;2023-05-23T02:27:22;100191.81;;;12.45;92.30
80103;BME280;69865;47.648;19.030;2023-05-23T02:27:53;100182.91;;;12.46;92.01
80103;BME280;69865;47.648;19.030;2023-05-23T02:28:23;100189.03;;;12.47;92.15
80103;BME280;69865;47.648;19.030;2023-05-23T02:28:55;100185.41;;;12.48;91.98
80103;BME280;69865;47.648;19.030;2023-05-23T02:29:26;100184.56;;;12.47;92.09
80103;BME280;69865;47.648;19.030;2023-05-23T02:29:57;100185.41;;;12.48;92.26
80103;BME280;69865;47.648;19.030;2023-05-23T02:30:27;100177.34;;;12.49;92.26
80103;BME280;69865;47.648;19.030;2023-05-23T02:30:58;100179.16;;;12.49;92.46
80103;BME280;69865;47.648;19.030;2023-05-23T02:31:29;100180.66;;;12.51;92.39
80103;BME280;69865;47.648;19.030;2023-05-23T02:32:00;100177.03;;;12.52;91.74
80103;BME280;69865;47.648;19.030;2023-05-23T02:32:31;100177.72;;;12.54;91.94
80103;BME280;69865;47.648;19.030;2023-05-23T02:33:03;100175.91;;;12.55;92.06
80103;BME280;69865;47.648;19.030;2023-05-23T02:33:34;100182.84;;;12.56;91.77
80103;BME280;69865;47.648;19.030;2023-05-23T02:34:05;100180.22;;;12.56;91.88
80103;BME280;69865;47.648;19.030;2023-05-23T02:34:36;100177.44;;;12.57;91.81
80103;BME280;69865;47.648;19.030;2023-05-23T02:35:07;100175.91;;;12.55;92.00
80103;BME280;69865;47.648;19.030;2023-05-23T02:35:38;100173.44;;;12.53;91.54
80103;BME280;69865;47.648;19.030;2023-05-23T02:36:09;100174.53;;;12.51;91.51
80103;BME280;69865;47.648;19.030;2023-05-23T02:36:40;100175.22;;;12.53;91.73
80103;BME280;69865;47.648;19.030;2023-05-23T02:37:10;100172.59;;;12.53;91.70
80103;BME280;69865;47.648;19.030;2023-05-23T02:37:41;100174.41;;;12.52;91.86
80103;BME280;69865;47.648;19.030;2023-05-23T02:38:12;100174.25;;;12.54;91.73
80103;BME280;69865;47.648;19.030;2023-05-23T02:38:42;100173.44;;;12.53;91.88
80103;BME280;69865;47.648;19.030;2023-05-23T02:39:13;100176.22;;;12.52;91.30
80103;BME280;69865;47.648;19.030;2023-05-23T02:39:44;100177.19;;;12.51;91.57
80103;BME280;69865;47.648;19.030;2023-05-23T02:40:15;100179.81;;;12.51;91.61
80103;BME280;69865;47.648;19.030;2023-05-23T02:40:45;100174.84;;;12.48;91.65
80103;BME280;69865;47.648;19.030;2023-05-23T02:41:16;100169.56;;;12.48;92.13
80103;BME280;69865;47.648;19.030;2023-05-23T02:41:47;100181.94;;;12.47;92.01
80103;BME280;69865;47.648;19.030;2023-05-23T02:42:18;100174.00;;;12.47;92.06
80103;BME280;69865;47.648;19.030;2023-05-23T02:42:48;100174.00;;;12.47;92.23
80103;BME280;69865;47.648;19.030;2023-05-23T02:43:19;100177.34;;;12.49;91.74
80103;BME280;69865;47.648;19.030;2023-05-23T02:43:50;100182.03;;;12.55;91.98
80103;BME280;69865;47.648;19.030;2023-05-23T02:44:22;100171.16;;;12.58;91.56
80103;BME280;69865;47.648;19.030;2023-05-23T02:44:52;100176.44;;;12.58;91.29
80103;BME280;69865;47.648;19.030;2023-05-23T02:45:23;100175.91;;;12.55;91.32